createdAt,value
2018-09-11T00:03:45.886Z,99.90
2018-09-11T00:07:39.878Z,99.90
2018-09-11T00:11:33.807Z,99.90
2018-09-11T00:15:27.806Z,99.90
2018-09-11T00:19:21.803Z,99.90
2018-09-11T00:23:15.789Z,99.90
2018-09-11T00:27:09.737Z,99.90
2018-09-11T00:31:03.994Z,99.90
2018-09-11T00:34:57.939Z,99.90
2018-09-11T00:38:51.913Z,99.90
2018-09-11T00:42:45.850Z,99.90
2018-09-11T00:46:39.754Z,99.90
2018-09-11T00:50:33.806Z,99.90
2018-09-11T00:54:27.838Z,99.90
2018-09-11T00:58:21.983Z,99.90
2018-09-11T01:02:16.497Z,99.90
2018-09-11T01:06:10.490Z,99.90
2018-09-11T01:10:06.850Z,99.90
2018-09-11T01:14:00.773Z,99.90
2018-09-11T01:17:55.882Z,99.90
2018-09-11T01:21:50.080Z,99.90
2018-09-11T01:25:44.376Z,99.90
2018-09-11T01:29:38.283Z,99.90
2018-09-11T01:33:32.218Z,99.90
2018-09-11T01:37:26.338Z,99.90
2018-09-11T01:41:20.402Z,99.90
2018-09-11T01:45:14.525Z,99.90
2018-09-11T01:49:08.994Z,99.90
2018-09-11T01:53:03.220Z,99.90
2018-09-11T01:56:57.182Z,99.90
2018-09-11T02:00:51.783Z,99.90
2018-09-11T02:04:46.174Z,99.90
2018-09-11T02:08:40.120Z,99.90
2018-09-11T02:12:34.182Z,99.90
2018-09-11T02:16:28.089Z,99.90
2018-09-11T02:20:22.181Z,99.90
2018-09-11T02:24:16.270Z,99.90
2018-09-11T02:28:10.260Z,99.90
2018-09-11T02:32:04.220Z,99.90
2018-09-11T02:35:58.242Z,99.90
2018-09-11T02:39:52.640Z,99.90
2018-09-11T02:43:46.582Z,99.90
2018-09-11T02:47:40.518Z,99.90
2018-09-11T02:51:35.116Z,99.90
2018-09-11T02:55:29.208Z,99.90
2018-09-11T02:59:23.141Z,99.90
2018-09-11T03:03:17.182Z,99.90
2018-09-11T03:07:11.121Z,99.90
2018-09-11T03:11:05.162Z,99.90
2018-09-11T03:14:59.151Z,99.90
2018-09-11T03:18:53.122Z,99.90
2018-09-11T03:22:47.047Z,99.90
2018-09-11T03:26:41.103Z,99.90
2018-09-11T03:30:35.049Z,99.90
2018-09-11T03:34:29.552Z,99.90
2018-09-11T03:38:23.883Z,99.90
2018-09-11T03:42:17.953Z,99.90
2018-09-11T03:46:11.906Z,99.90
2018-09-11T03:50:06.348Z,99.90
2018-09-11T03:54:00.335Z,99.90
2018-09-11T03:57:54.265Z,99.90
2018-09-11T04:01:48.211Z,99.90
2018-09-11T04:05:42.181Z,99.90
2018-09-11T04:09:36.746Z,99.90
2018-09-11T04:13:30.741Z,99.90
2018-09-11T04:17:31.888Z,99.90
2018-09-11T04:21:25.855Z,99.90
2018-09-11T04:25:19.791Z,99.90
2018-09-11T04:29:13.683Z,99.90
2018-09-11T04:33:07.651Z,99.90
2018-09-11T04:37:01.652Z,99.90
2018-09-11T04:40:55.576Z,99.90
2018-09-11T04:44:49.581Z,99.90
2018-09-11T04:48:45.081Z,99.90
2018-09-11T04:52:39.169Z,99.90
2018-09-11T04:56:33.087Z,99.90
2018-09-11T05:00:27.106Z,99.90
2018-09-11T05:04:21.099Z,99.90
2018-09-11T05:08:15.046Z,99.90
2018-09-11T05:12:09.069Z,99.90
2018-09-11T05:16:03.050Z,99.90
2018-09-11T05:19:57.100Z,99.90
2018-09-11T05:23:51.091Z,99.90
2018-09-11T05:27:45.146Z,99.90
2018-09-11T05:31:39.177Z,99.90
2018-09-11T05:35:33.160Z,99.90
2018-09-11T05:39:28.386Z,99.90
2018-09-11T05:43:22.458Z,99.90
2018-09-11T05:47:16.518Z,99.90
2018-09-11T05:51:10.611Z,99.90
2018-09-11T05:55:04.805Z,99.90
2018-09-11T05:58:58.892Z,99.90
2018-09-11T06:02:53.450Z,99.90
2018-09-11T06:06:47.448Z,99.90
2018-09-11T06:10:41.401Z,99.90
2018-09-11T06:14:35.535Z,99.90
2018-09-11T06:18:30.772Z,99.90
2018-09-11T06:22:24.920Z,99.90
2018-09-11T06:26:18.989Z,99.90
2018-09-11T06:30:12.994Z,99.90
2018-09-11T06:34:07.101Z,99.90
2018-09-11T06:38:01.179Z,99.90
2018-09-11T06:41:55.156Z,99.90
2018-09-11T06:45:49.213Z,99.90
2018-09-11T06:49:43.207Z,99.90
2018-09-11T06:53:37.278Z,99.90
2018-09-11T06:57:31.319Z,99.90
2018-09-11T07:01:25.367Z,99.90
2018-09-11T07:05:19.427Z,99.90
2018-09-11T07:09:13.495Z,99.90
2018-09-11T07:13:07.927Z,99.90
2018-09-11T07:17:02.589Z,99.90
2018-09-11T07:20:56.795Z,99.90
2018-09-11T07:24:50.739Z,99.90
2018-09-11T07:28:45.137Z,99.90
2018-09-11T07:32:40.198Z,99.90
2018-09-11T07:36:34.138Z,99.90
2018-09-11T07:40:28.985Z,99.90
2018-09-11T07:44:22.980Z,99.90
2018-09-11T07:48:17.034Z,99.90
2018-09-11T07:52:11.103Z,99.90
2018-09-11T07:56:05.068Z,99.90
2018-09-11T07:59:59.227Z,99.90
2018-09-11T08:03:53.922Z,99.90
2018-09-11T08:07:48.318Z,99.90
2018-09-11T08:11:42.301Z,99.90
2018-09-11T08:15:36.300Z,99.90
2018-09-11T08:19:30.425Z,99.90
2018-09-11T08:23:25.546Z,99.90
2018-09-11T08:27:19.515Z,99.90
2018-09-11T08:31:13.544Z,99.90
2018-09-11T08:35:07.540Z,99.90
2018-09-11T08:39:01.959Z,99.90
2018-09-11T08:42:55.934Z,99.90
2018-09-11T08:46:49.925Z,99.90
2018-09-11T08:50:43.879Z,99.90
2018-09-11T08:54:37.807Z,99.90
2018-09-11T08:58:31.901Z,99.90
2018-09-11T09:02:26.127Z,99.90
2018-09-11T09:06:20.235Z,99.90
2018-09-11T09:10:14.380Z,99.90
2018-09-11T09:14:08.375Z,99.90
2018-09-11T09:18:02.674Z,99.90
2018-09-11T09:21:56.662Z,99.90
2018-09-11T09:25:50.628Z,99.90
2018-09-11T09:29:44.738Z,99.90
2018-09-11T09:33:38.847Z,99.90
2018-09-11T09:37:33.199Z,99.90
2018-09-11T09:41:28.192Z,99.90
2018-09-11T09:45:23.487Z,99.90
2018-09-11T09:49:17.736Z,99.70
2018-09-11T09:53:13.309Z,99.50
2018-09-11T09:57:08.836Z,99.00
2018-09-11T10:01:09.678Z,99.00
2018-09-11T10:05:04.391Z,98.60
2018-09-11T10:08:58.404Z,98.20
2018-09-11T10:12:53.306Z,98.20
2018-09-11T10:16:47.598Z,97.70
2018-09-11T10:20:41.588Z,97.70
2018-09-11T10:24:36.056Z,97.00
2018-09-11T10:28:30.163Z,96.80
2018-09-11T10:32:24.258Z,96.80
2018-09-11T10:36:18.318Z,95.70
2018-09-11T10:40:12.285Z,95.60
2018-09-11T10:44:07.156Z,95.40
2018-09-11T10:48:01.207Z,95.30
2018-09-11T10:51:56.123Z,95.00
2018-09-11T10:55:50.096Z,94.60
2018-09-11T10:59:44.083Z,94.70
2018-09-11T11:03:38.217Z,94.40
2018-09-11T11:07:32.221Z,94.30
2018-09-11T11:11:26.279Z,93.70
2018-09-11T11:15:20.378Z,93.20
2018-09-11T11:19:14.354Z,92.90
2018-09-11T11:23:08.320Z,92.30
2018-09-11T11:27:02.351Z,91.80
2018-09-11T11:30:56.542Z,91.70
2018-09-11T11:34:50.545Z,91.80
2018-09-11T11:38:44.631Z,92.00
2018-09-11T11:42:38.767Z,91.80
2018-09-11T11:46:32.798Z,91.70
2018-09-11T11:50:26.880Z,90.80
2018-09-11T11:54:20.974Z,90.40
2018-09-11T11:58:15.104Z,89.10
2018-09-11T12:02:10.260Z,88.80
2018-09-11T12:06:04.245Z,89.60
2018-09-11T12:09:58.362Z,88.70
2018-09-11T12:13:52.397Z,89.40
2018-09-11T12:17:46.858Z,86.90
2018-09-11T12:21:41.001Z,87.70
2018-09-11T12:25:35.107Z,88.20
2018-09-11T12:29:29.115Z,86.90
2018-09-11T12:33:23.132Z,86.90
2018-09-11T12:37:17.297Z,87.10
2018-09-11T12:41:12.843Z,85.20
2018-09-11T12:45:06.748Z,82.70
2018-09-11T12:49:01.118Z,83.40
2018-09-11T12:52:55.184Z,83.10
2018-09-11T12:56:49.673Z,82.60
2018-09-11T13:00:43.607Z,82.80
2018-09-11T13:04:37.747Z,82.60
2018-09-11T13:08:31.827Z,81.30
2018-09-11T13:12:26.127Z,82.30
2018-09-11T13:16:20.387Z,82.20
2018-09-11T13:20:15.023Z,81.40
2018-09-11T13:24:09.682Z,81.30
2018-09-11T13:28:03.767Z,81.80
2018-09-11T13:31:57.765Z,82.30
2018-09-11T13:35:51.907Z,80.20
2018-09-11T13:39:46.003Z,80.50
2018-09-11T13:43:41.418Z,79.40
2018-09-11T13:47:37.411Z,76.80
2018-09-11T13:51:31.403Z,76.90
2018-09-11T13:55:25.396Z,76.60
2018-09-11T13:59:19.398Z,74.90
2018-09-11T14:03:13.374Z,73.70
2018-09-11T14:07:07.349Z,73.50
2018-09-11T14:11:01.348Z,72.30
2018-09-11T14:14:55.313Z,73.10
2018-09-11T14:18:49.851Z,72.90
2018-09-11T14:22:43.974Z,72.80
2018-09-11T14:26:38.001Z,73.90
2018-09-11T14:30:32.038Z,73.60
2018-09-11T14:34:26.035Z,73.00
2018-09-11T14:38:20.113Z,70.70
2018-09-11T14:42:14.124Z,69.70
2018-09-11T14:46:08.660Z,67.60
2018-09-11T14:50:02.634Z,67.40
2018-09-11T14:53:56.741Z,66.30
2018-09-11T14:57:50.724Z,65.50
2018-09-11T15:01:45.145Z,65.00
2018-09-11T15:05:39.117Z,64.70
2018-09-11T15:09:33.355Z,64.00
2018-09-11T15:13:27.614Z,63.20
2018-09-11T15:17:23.100Z,62.90
2018-09-11T15:21:17.406Z,63.00
2018-09-11T15:25:11.448Z,62.20
2018-09-11T15:29:05.740Z,62.30
2018-09-11T15:32:59.772Z,61.50
2018-09-11T15:36:53.780Z,61.60
2018-09-11T15:40:47.986Z,61.30
2018-09-11T15:44:41.926Z,61.00
2018-09-11T15:48:36.028Z,61.60
2018-09-11T15:52:29.986Z,60.90
2018-09-11T15:56:24.040Z,61.30
2018-09-11T16:00:18.434Z,61.20
2018-09-11T16:04:12.781Z,60.80
2018-09-11T16:08:06.764Z,61.00
2018-09-11T16:12:00.874Z,61.70
2018-09-11T16:15:54.837Z,60.40
2018-09-11T16:19:48.866Z,60.10
2018-09-11T16:23:42.916Z,59.90
2018-09-11T16:27:36.944Z,60.50
2018-09-11T16:31:31.088Z,60.80
2018-09-11T16:35:25.021Z,60.50
2018-09-11T16:39:19.148Z,61.30
2018-09-11T16:43:13.186Z,61.80
2018-09-11T16:47:07.399Z,61.30
2018-09-11T16:51:01.443Z,61.70
2018-09-11T16:54:55.481Z,61.90
2018-09-11T16:58:49.534Z,62.60
2018-09-11T17:02:43.576Z,62.60
2018-09-11T17:06:41.304Z,63.50
2018-09-11T17:10:35.307Z,63.90
2018-09-11T17:14:29.357Z,62.90
2018-09-11T17:18:23.516Z,63.10
2018-09-11T17:22:18.809Z,63.80
2018-09-11T17:26:13.020Z,64.30
2018-09-11T17:30:07.153Z,65.20
2018-09-11T17:34:01.287Z,65.50
2018-09-11T17:37:55.400Z,66.40
2018-09-11T17:41:49.518Z,67.10
2018-09-11T17:45:43.600Z,67.80
2018-09-11T17:49:37.650Z,68.80
2018-09-11T17:53:32.033Z,69.70
2018-09-11T17:57:27.024Z,70.50
2018-09-11T18:01:21.014Z,71.40
2018-09-11T18:05:15.041Z,72.00
2018-09-11T18:09:09.068Z,72.50
2018-09-11T18:13:03.122Z,73.20
2018-09-11T18:16:57.227Z,73.80
2018-09-11T18:20:51.230Z,74.40
2018-09-11T18:24:45.518Z,75.10
2018-09-11T18:28:39.597Z,76.30
2018-09-11T18:32:33.691Z,77.00
2018-09-11T18:36:28.898Z,77.30
2018-09-11T18:40:25.275Z,78.40
2018-09-11T18:44:19.258Z,78.80
2018-09-11T18:48:13.298Z,79.40
2018-09-11T18:52:07.454Z,79.70
2018-09-11T18:56:01.472Z,80.30
2018-09-11T18:59:55.518Z,80.70
2018-09-11T19:03:49.553Z,81.40
2018-09-11T19:07:43.586Z,81.90
2018-09-11T19:11:38.455Z,82.50
2018-09-11T19:15:33.882Z,82.70
2018-09-11T19:19:27.822Z,83.00
2018-09-11T19:23:22.161Z,83.00
2018-09-11T19:27:16.130Z,83.60
2018-09-11T19:31:10.526Z,84.00
2018-09-11T19:35:05.160Z,84.20
2018-09-11T19:38:59.121Z,84.00
2018-09-11T19:42:53.158Z,84.40
2018-09-11T19:46:48.113Z,85.00
2018-09-11T19:50:42.156Z,85.40
2018-09-11T19:54:36.184Z,85.60
2018-09-11T19:58:30.121Z,85.80
2018-09-11T20:02:24.890Z,86.10
2018-09-11T20:06:21.769Z,86.40
2018-09-11T20:10:35.186Z,87.20
2018-09-11T20:14:37.296Z,87.80
2018-09-11T20:18:38.028Z,88.00
2018-09-11T20:22:37.936Z,88.70
2018-09-11T20:26:31.996Z,89.40
2018-09-11T20:30:25.918Z,89.90
2018-09-11T20:34:20.006Z,90.00
2018-09-11T20:38:14.037Z,90.10
2018-09-11T20:42:08.163Z,90.20
2018-09-11T20:46:03.150Z,90.30
2018-09-11T20:49:57.291Z,90.50
2018-09-11T20:53:51.308Z,90.70
2018-09-11T20:57:45.392Z,91.00
2018-09-11T21:01:40.036Z,91.30
2018-09-11T21:05:34.177Z,91.60
2018-09-11T21:09:28.816Z,91.90
2018-09-11T21:13:22.839Z,92.10
2018-09-11T21:17:16.938Z,92.30
2018-09-11T21:21:10.913Z,92.50
2018-09-11T21:25:04.982Z,92.80
2018-09-11T21:28:59.067Z,93.10
2018-09-11T21:32:53.060Z,93.20
2018-09-11T21:36:47.469Z,93.50
2018-09-11T21:40:42.205Z,93.60
2018-09-11T21:44:37.158Z,93.90
2018-09-11T21:48:31.547Z,94.20
2018-09-11T21:52:25.603Z,94.20
2018-09-11T21:56:19.611Z,94.00
2018-09-11T22:00:14.130Z,93.90
2018-09-11T22:04:08.130Z,94.00
2018-09-11T22:08:02.180Z,94.20
2018-09-11T22:11:56.343Z,94.20
2018-09-11T22:15:50.313Z,94.40
2018-09-11T22:19:44.348Z,94.50
2018-09-11T22:23:39.638Z,94.70
2018-09-11T22:27:33.735Z,94.90
2018-09-11T22:31:27.755Z,95.20
2018-09-11T22:35:21.765Z,95.50
2018-09-11T22:39:15.766Z,95.70
2018-09-11T22:43:09.879Z,95.90
2018-09-11T22:47:04.120Z,96.00
2018-09-11T22:50:58.050Z,96.00
2018-09-11T22:54:52.091Z,96.00
2018-09-11T22:58:46.046Z,96.10
2018-09-11T23:02:40.952Z,96.40
2018-09-11T23:06:35.048Z,96.50
2018-09-11T23:10:29.714Z,96.70
2018-09-11T23:14:23.823Z,96.70
2018-09-11T23:18:17.889Z,96.80
2018-09-11T23:22:12.259Z,97.10
2018-09-11T23:26:06.302Z,97.40
2018-09-11T23:30:00.621Z,97.40
2018-09-11T23:33:54.581Z,97.50
2018-09-11T23:37:48.566Z,97.50
2018-09-11T23:41:42.953Z,97.80
2018-09-11T23:45:37.023Z,98.10
2018-09-11T23:49:31.137Z,98.20
2018-09-11T23:53:25.181Z,98.10
2018-09-11T23:57:19.163Z,98.20
